createdAt,value
2019-02-26T00:00:19.522Z,1027.33
2019-02-26T00:01:19.197Z,1027.33
2019-02-26T00:02:19.525Z,1027.34
2019-02-26T00:03:19.887Z,1027.41
2019-02-26T00:04:20.850Z,1027.30
2019-02-26T00:05:19.654Z,1027.31
2019-02-26T00:06:18.565Z,1027.28
2019-02-26T00:07:18.864Z,1027.25
2019-02-26T00:08:21.399Z,1027.26
2019-02-26T00:09:20.529Z,1027.26
2019-02-26T00:10:19.784Z,1027.25
2019-02-26T00:11:17.196Z,1027.28
2019-02-26T00:12:19.985Z,1027.26
2019-02-26T00:13:17.214Z,1027.33
2019-02-26T00:14:17.712Z,1027.29
2019-02-26T00:15:17.151Z,1027.30
2019-02-26T00:16:18.389Z,1027.21
2019-02-26T00:17:19.208Z,1027.23
2019-02-26T00:18:19.044Z,1027.19
2019-02-26T00:19:17.126Z,1027.23
2019-02-26T00:20:17.663Z,1027.21
2019-02-26T00:21:17.080Z,1027.19
2019-02-26T00:22:18.258Z,1027.23
2019-02-26T00:23:17.075Z,1027.23
2019-02-26T00:24:17.084Z,1027.19
2019-02-26T00:25:17.975Z,1027.19
2019-02-26T00:26:17.642Z,1027.19
2019-02-26T00:27:17.015Z,1027.18
2019-02-26T00:28:17.683Z,1027.20
2019-02-26T00:29:17.021Z,1027.13
2019-02-26T00:30:18.633Z,1027.15
2019-02-26T00:31:19.129Z,1027.23
2019-02-26T00:32:18.516Z,1027.18
2019-02-26T00:33:18.959Z,1027.27
2019-02-26T00:34:18.669Z,1027.21
2019-02-26T00:35:19.052Z,1027.24
2019-02-26T00:36:16.919Z,1027.16
2019-02-26T00:37:16.921Z,1027.18
2019-02-26T00:38:18.185Z,1027.20
2019-02-26T00:39:16.911Z,1027.24
2019-02-26T00:40:17.940Z,1027.17
2019-02-26T00:41:20.356Z,1027.14
2019-02-26T00:42:19.513Z,1027.16
2019-02-26T00:43:20.864Z,1027.11
2019-02-26T00:44:18.580Z,1027.09
2019-02-26T00:45:16.852Z,1027.17
2019-02-26T00:46:16.816Z,1027.10
2019-02-26T00:47:16.795Z,1027.16
2019-02-26T00:48:16.820Z,1027.18
2019-02-26T00:49:16.798Z,1027.13
2019-02-26T00:50:16.823Z,1027.07
2019-02-26T00:51:18.707Z,1027.03
2019-02-26T00:52:16.751Z,1026.98
2019-02-26T00:53:19.116Z,1026.94
2019-02-26T00:54:20.185Z,1026.93
2019-02-26T00:55:17.709Z,1026.97
2019-02-26T00:56:16.698Z,1026.96
2019-02-26T00:57:16.691Z,1026.92
2019-02-26T00:58:16.678Z,1026.90
2019-02-26T00:59:16.699Z,1026.93
2019-02-26T01:00:16.660Z,1026.88
2019-02-26T01:01:17.708Z,1026.85
2019-02-26T01:02:16.635Z,1026.83
2019-02-26T01:03:16.616Z,1026.84
2019-02-26T01:04:16.605Z,1026.85
2019-02-26T01:05:16.621Z,1026.81
2019-02-26T01:06:16.605Z,1026.82
2019-02-26T01:07:16.607Z,1026.79
2019-02-26T01:08:17.564Z,1026.75
2019-02-26T01:09:16.572Z,1026.76
2019-02-26T01:10:19.231Z,1026.75
2019-02-26T01:11:16.534Z,1026.81
2019-02-26T01:12:18.210Z,1026.89
2019-02-26T01:13:16.509Z,1026.81
2019-02-26T01:14:18.602Z,1026.85
2019-02-26T01:15:16.493Z,1026.90
2019-02-26T01:16:16.500Z,1026.92
2019-02-26T01:17:18.627Z,1026.83
2019-02-26T01:18:18.024Z,1026.90
2019-02-26T01:19:17.513Z,1026.84
2019-02-26T01:20:16.439Z,1026.87
2019-02-26T01:21:16.450Z,1026.86
2019-02-26T01:22:16.403Z,1026.88
2019-02-26T01:23:18.704Z,1026.82
2019-02-26T01:24:16.395Z,1026.86
2019-02-26T01:25:18.531Z,1026.91
2019-02-26T01:26:16.389Z,1026.89
2019-02-26T01:27:16.348Z,1026.88
2019-02-26T01:28:18.081Z,1026.86
2019-02-26T01:29:18.977Z,1026.89
2019-02-26T01:30:20.681Z,1026.90
2019-02-26T01:31:19.779Z,1026.90
2019-02-26T01:32:17.985Z,1026.90
2019-02-26T01:33:16.285Z,1026.92
2019-02-26T01:34:17.988Z,1026.89
2019-02-26T01:35:16.266Z,1026.91
2019-02-26T01:36:18.629Z,1026.90
2019-02-26T01:37:16.241Z,1026.89
2019-02-26T01:38:17.011Z,1026.86
2019-02-26T01:39:18.579Z,1026.88
2019-02-26T01:40:19.189Z,1026.91
2019-02-26T01:41:18.006Z,1026.89
2019-02-26T01:42:18.065Z,1026.87
2019-02-26T01:43:17.170Z,1026.92
2019-02-26T01:44:16.167Z,1026.83
2019-02-26T01:45:19.398Z,1026.84
2019-02-26T01:46:18.222Z,1026.85
2019-02-26T01:47:17.164Z,1026.86
2019-02-26T01:48:18.514Z,1026.87
2019-02-26T01:49:17.137Z,1026.85
2019-02-26T01:50:16.343Z,1026.88
2019-02-26T01:51:17.107Z,1026.91
2019-02-26T01:52:17.422Z,1026.90
2019-02-26T01:53:17.489Z,1026.94
2019-02-26T01:54:16.777Z,1026.94
2019-02-26T01:55:16.547Z,1026.95
2019-02-26T01:56:17.734Z,1026.86
2019-02-26T01:57:17.410Z,1026.93
2019-02-26T01:58:16.727Z,1026.97
2019-02-26T01:59:19.018Z,1026.91
2019-02-26T02:00:15.986Z,1026.89
2019-02-26T02:01:16.846Z,1026.89
2019-02-26T02:02:18.112Z,1026.88
2019-02-26T02:03:15.955Z,1026.92
2019-02-26T02:04:17.233Z,1026.88
2019-02-26T02:05:15.933Z,1026.84
2019-02-26T02:06:18.045Z,1026.81
2019-02-26T02:07:15.953Z,1026.83
2019-02-26T02:08:17.788Z,1026.79
2019-02-26T02:09:17.688Z,1026.78
2019-02-26T02:10:15.892Z,1026.75
2019-02-26T02:11:15.862Z,1026.74
2019-02-26T02:12:15.865Z,1026.71
2019-02-26T02:13:15.883Z,1026.70
2019-02-26T02:14:17.072Z,1026.72
2019-02-26T02:15:18.882Z,1026.66
2019-02-26T02:16:16.829Z,1026.59
2019-02-26T02:17:15.835Z,1026.63
2019-02-26T02:18:15.794Z,1026.53
2019-02-26T02:19:20.134Z,1026.44
2019-02-26T02:20:20.921Z,1026.44
2019-02-26T02:21:15.799Z,1026.42
2019-02-26T02:22:16.843Z,1026.38
2019-02-26T02:23:15.737Z,1026.41
2019-02-26T02:24:17.479Z,1026.41
2019-02-26T02:25:15.749Z,1026.42
2019-02-26T02:26:15.733Z,1026.36
2019-02-26T02:27:19.517Z,1026.34
2019-02-26T02:28:19.218Z,1026.33
2019-02-26T02:29:16.915Z,1026.32
2019-02-26T02:30:22.049Z,1026.29
2019-02-26T02:31:16.677Z,1026.29
2019-02-26T02:32:15.635Z,1026.33
2019-02-26T02:33:19.595Z,1026.27
2019-02-26T02:34:16.645Z,1026.22
2019-02-26T02:35:18.944Z,1026.27
2019-02-26T02:36:17.666Z,1026.18
2019-02-26T02:37:17.884Z,1026.21
2019-02-26T02:38:19.430Z,1026.21
2019-02-26T02:39:18.029Z,1026.21
2019-02-26T02:40:15.584Z,1026.25
2019-02-26T02:41:15.562Z,1026.26
2019-02-26T02:42:17.088Z,1026.26
2019-02-26T02:43:17.963Z,1026.28
2019-02-26T02:44:17.885Z,1026.25
2019-02-26T02:45:20.116Z,1026.14
2019-02-26T02:46:16.496Z,1026.23
2019-02-26T02:47:15.488Z,1026.23
2019-02-26T02:48:15.467Z,1026.13
2019-02-26T02:49:17.795Z,1026.17
2019-02-26T02:50:18.169Z,1026.14
2019-02-26T02:51:15.446Z,1026.17
2019-02-26T02:52:15.412Z,1026.07
2019-02-26T02:53:15.402Z,1026.12
2019-02-26T02:54:18.089Z,1026.14
2019-02-26T02:55:18.615Z,1026.08
2019-02-26T02:56:17.824Z,1026.07
2019-02-26T02:57:15.359Z,1026.06
2019-02-26T02:58:18.324Z,1026.06
2019-02-26T02:59:16.534Z,1026.11
2019-02-26T03:00:15.342Z,1026.09
2019-02-26T03:01:16.742Z,1026.00
2019-02-26T03:02:17.802Z,1026.03
2019-02-26T03:03:15.291Z,1026.01
2019-02-26T03:04:19.533Z,1025.98
2019-02-26T03:05:15.274Z,1025.99
2019-02-26T03:06:15.255Z,1026.00
2019-02-26T03:07:17.721Z,1026.03
2019-02-26T03:08:16.396Z,1026.04
2019-02-26T03:09:17.744Z,1026.05
2019-02-26T03:10:15.283Z,1026.08
2019-02-26T03:11:15.207Z,1026.08
2019-02-26T03:12:15.219Z,1026.07
2019-02-26T03:13:16.910Z,1026.10
2019-02-26T03:14:16.635Z,1026.16
2019-02-26T03:15:15.169Z,1026.15
2019-02-26T03:16:16.065Z,1026.18
2019-02-26T03:17:18.167Z,1026.18
2019-02-26T03:18:16.914Z,1026.26
2019-02-26T03:19:16.934Z,1026.16
2019-02-26T03:20:15.100Z,1026.20
2019-02-26T03:21:16.670Z,1026.21
2019-02-26T03:22:17.807Z,1026.25
2019-02-26T03:23:16.859Z,1026.16
2019-02-26T03:24:15.059Z,1026.19
2019-02-26T03:25:17.750Z,1026.15
2019-02-26T03:26:17.931Z,1026.18
2019-02-26T03:27:15.035Z,1026.16
2019-02-26T03:28:15.038Z,1026.12
2019-02-26T03:29:15.002Z,1026.14
2019-02-26T03:30:20.259Z,1026.17
2019-02-26T03:31:16.013Z,1026.17
2019-02-26T03:32:14.980Z,1026.14
2019-02-26T03:33:14.980Z,1026.22
2019-02-26T03:34:19.947Z,1026.21
2019-02-26T03:35:19.183Z,1026.23
2019-02-26T03:36:16.657Z,1026.20
2019-02-26T03:37:14.917Z,1026.22
2019-02-26T03:38:15.933Z,1026.25
2019-02-26T03:39:14.897Z,1026.22
2019-02-26T03:40:14.891Z,1026.24
2019-02-26T03:41:16.616Z,1026.24
2019-02-26T03:42:16.681Z,1026.20
2019-02-26T03:43:16.295Z,1026.21
2019-02-26T03:44:14.842Z,1026.24
2019-02-26T03:45:14.833Z,1026.22
2019-02-26T03:46:14.816Z,1026.26
2019-02-26T03:47:16.255Z,1026.23
2019-02-26T03:48:19.297Z,1026.23
2019-02-26T03:49:15.780Z,1026.23
2019-02-26T03:50:14.767Z,1026.27
2019-02-26T03:51:17.214Z,1026.28
2019-02-26T03:52:15.889Z,1026.29
2019-02-26T03:53:14.777Z,1026.30
2019-02-26T03:54:14.732Z,1026.34
2019-02-26T03:55:18.326Z,1026.34
2019-02-26T03:56:15.488Z,1026.31
2019-02-26T03:57:16.648Z,1026.26
2019-02-26T03:58:14.682Z,1026.33
2019-02-26T03:59:14.700Z,1026.32
2019-02-26T04:00:16.719Z,1026.31
2019-02-26T04:01:18.245Z,1026.34
2019-02-26T04:02:15.537Z,1026.38
2019-02-26T04:03:16.779Z,1026.40
2019-02-26T04:04:14.649Z,1026.42
2019-02-26T04:05:14.621Z,1026.40
2019-02-26T04:06:14.601Z,1026.44
2019-02-26T04:07:14.620Z,1026.42
2019-02-26T04:08:16.356Z,1026.44
2019-02-26T04:09:17.174Z,1026.38
2019-02-26T04:10:14.550Z,1026.39
2019-02-26T04:11:16.836Z,1026.43
2019-02-26T04:12:15.476Z,1026.36
2019-02-26T04:13:14.528Z,1026.37
2019-02-26T04:14:15.338Z,1026.41
2019-02-26T04:15:14.496Z,1026.40
2019-02-26T04:16:14.486Z,1026.37
2019-02-26T04:17:14.484Z,1026.41
2019-02-26T04:18:14.466Z,1026.44
2019-02-26T04:19:14.460Z,1026.45
2019-02-26T04:20:14.461Z,1026.46
2019-02-26T04:21:17.664Z,1026.42
2019-02-26T04:22:15.296Z,1026.41
2019-02-26T04:23:17.218Z,1026.49
2019-02-26T04:24:14.402Z,1026.51
2019-02-26T04:25:14.413Z,1026.48
2019-02-26T04:26:18.487Z,1026.51
2019-02-26T04:27:15.365Z,1026.51
2019-02-26T04:28:14.356Z,1026.58
2019-02-26T04:29:14.342Z,1026.51
2019-02-26T04:30:16.389Z,1026.53
2019-02-26T04:31:14.321Z,1026.52
2019-02-26T04:32:15.235Z,1026.56
2019-02-26T04:33:14.309Z,1026.52
2019-02-26T04:34:14.284Z,1026.49
2019-02-26T04:35:14.295Z,1026.57
2019-02-26T04:36:15.065Z,1026.52
2019-02-26T04:37:14.256Z,1026.53
2019-02-26T04:38:14.242Z,1026.50
2019-02-26T04:39:16.478Z,1026.57
2019-02-26T04:40:14.309Z,1026.54
2019-02-26T04:41:15.927Z,1026.52
2019-02-26T04:42:17.298Z,1026.60
2019-02-26T04:43:14.188Z,1026.58
2019-02-26T04:44:14.183Z,1026.58
2019-02-26T04:45:14.217Z,1026.49
2019-02-26T04:46:14.176Z,1026.45
2019-02-26T04:47:14.147Z,1026.49
2019-02-26T04:48:17.132Z,1026.48
2019-02-26T04:49:15.139Z,1026.48
2019-02-26T04:50:14.113Z,1026.48
2019-02-26T04:51:14.138Z,1026.48
2019-02-26T04:52:16.861Z,1026.51
2019-02-26T04:53:14.086Z,1026.53
2019-02-26T04:54:21.157Z,1026.48
2019-02-26T04:55:15.060Z,1026.45
2019-02-26T04:56:15.060Z,1026.49
2019-02-26T04:57:14.055Z,1026.51
2019-02-26T04:58:15.537Z,1026.58
2019-02-26T04:59:15.039Z,1026.56
2019-02-26T05:00:14.006Z,1026.56
2019-02-26T05:01:16.413Z,1026.57
2019-02-26T05:02:14.023Z,1026.53
2019-02-26T05:03:15.089Z,1026.50
2019-02-26T05:04:13.969Z,1026.51
2019-02-26T05:05:13.960Z,1026.47
2019-02-26T05:06:14.001Z,1026.49
2019-02-26T05:07:16.281Z,1026.43
2019-02-26T05:08:17.641Z,1026.49
2019-02-26T05:09:13.927Z,1026.52
2019-02-26T05:10:13.908Z,1026.47
2019-02-26T05:11:18.997Z,1026.48
2019-02-26T05:12:14.916Z,1026.42
2019-02-26T05:13:13.913Z,1026.46
2019-02-26T05:14:15.389Z,1026.44
2019-02-26T05:15:19.792Z,1026.40
2019-02-26T05:16:14.853Z,1026.37
2019-02-26T05:17:13.873Z,1026.35
2019-02-26T05:18:13.816Z,1026.40
2019-02-26T05:19:16.416Z,1026.37
2019-02-26T05:20:16.582Z,1026.36
2019-02-26T05:21:13.786Z,1026.37
2019-02-26T05:22:13.810Z,1026.38
2019-02-26T05:23:13.761Z,1026.36
2019-02-26T05:24:17.435Z,1026.32
2019-02-26T05:25:16.361Z,1026.34
2019-02-26T05:26:15.140Z,1026.37
2019-02-26T05:27:15.670Z,1026.39
2019-02-26T05:28:15.601Z,1026.38
2019-02-26T05:29:13.699Z,1026.39
2019-02-26T05:30:16.484Z,1026.30
2019-02-26T05:31:17.224Z,1026.34
2019-02-26T05:32:13.674Z,1026.37
2019-02-26T05:33:13.702Z,1026.32
2019-02-26T05:34:15.050Z,1026.24
2019-02-26T05:35:14.472Z,1026.27
2019-02-26T05:36:15.024Z,1026.29
2019-02-26T05:37:13.976Z,1026.28
2019-02-26T05:38:13.636Z,1026.26
2019-02-26T05:39:14.564Z,1026.32
2019-02-26T05:40:18.331Z,1026.31
2019-02-26T05:41:14.572Z,1026.31
2019-02-26T05:42:13.559Z,1026.36
2019-02-26T05:43:13.590Z,1026.31
2019-02-26T05:44:13.539Z,1026.34
2019-02-26T05:45:13.539Z,1026.35
2019-02-26T05:46:15.699Z,1026.36
2019-02-26T05:47:15.746Z,1026.39
2019-02-26T05:48:16.202Z,1026.33
2019-02-26T05:49:16.174Z,1026.35
2019-02-26T05:50:16.688Z,1026.34
2019-02-26T05:51:13.460Z,1026.33
2019-02-26T05:52:13.460Z,1026.33
2019-02-26T05:53:13.570Z,1026.36
2019-02-26T05:54:15.290Z,1026.35
2019-02-26T05:55:14.595Z,1026.38
2019-02-26T05:56:14.577Z,1026.44
2019-02-26T05:57:27.195Z,1026.37
2019-02-26T05:58:16.394Z,1026.34
2019-02-26T05:59:15.408Z,1026.38
2019-02-26T06:00:14.540Z,1026.37
2019-02-26T06:01:15.730Z,1026.34
2019-02-26T06:02:16.212Z,1026.36
2019-02-26T06:03:16.275Z,1026.42
2019-02-26T06:04:15.014Z,1026.34
2019-02-26T06:05:14.441Z,1026.41
2019-02-26T06:06:13.301Z,1026.39
2019-02-26T06:07:13.291Z,1026.37
2019-02-26T06:08:13.280Z,1026.34
2019-02-26T06:09:13.305Z,1026.30
2019-02-26T06:10:13.298Z,1026.36
2019-02-26T06:11:13.246Z,1026.36
2019-02-26T06:12:13.238Z,1026.42
2019-02-26T06:13:15.518Z,1026.40
2019-02-26T06:14:13.254Z,1026.42
2019-02-26T06:15:13.213Z,1026.44
2019-02-26T06:16:13.199Z,1026.47
2019-02-26T06:17:14.983Z,1026.41
2019-02-26T06:18:13.170Z,1026.44
2019-02-26T06:19:13.439Z,1026.38
2019-02-26T06:20:13.189Z,1026.45
2019-02-26T06:21:15.713Z,1026.41
2019-02-26T06:22:17.159Z,1026.40
2019-02-26T06:23:14.125Z,1026.42
2019-02-26T06:24:13.110Z,1026.40
2019-02-26T06:25:18.564Z,1026.39
2019-02-26T06:26:15.528Z,1026.40
2019-02-26T06:27:15.812Z,1026.44
2019-02-26T06:28:15.417Z,1026.45
2019-02-26T06:29:13.058Z,1026.38
2019-02-26T06:30:14.022Z,1026.35
2019-02-26T06:31:14.657Z,1026.41
2019-02-26T06:32:13.023Z,1026.39
2019-02-26T06:33:13.982Z,1026.42
2019-02-26T06:34:14.371Z,1026.33
2019-02-26T06:35:13.707Z,1026.41
2019-02-26T06:36:13.005Z,1026.37
2019-02-26T06:37:13.860Z,1026.39
2019-02-26T06:38:12.965Z,1026.36
2019-02-26T06:39:12.948Z,1026.34
2019-02-26T06:40:12.931Z,1026.36
2019-02-26T06:41:12.994Z,1026.39
2019-02-26T06:42:14.479Z,1026.32
2019-02-26T06:43:12.907Z,1026.41
2019-02-26T06:44:12.904Z,1026.38
2019-02-26T06:45:13.973Z,1026.33
2019-02-26T06:46:14.117Z,1026.34
2019-02-26T06:47:12.869Z,1026.37
2019-02-26T06:48:16.930Z,1026.36
2019-02-26T06:49:12.847Z,1026.31
2019-02-26T06:50:13.804Z,1026.33
2019-02-26T06:51:12.853Z,1026.34
2019-02-26T06:52:13.504Z,1026.30
2019-02-26T06:53:13.787Z,1026.36
2019-02-26T06:54:15.357Z,1026.32
2019-02-26T06:55:12.776Z,1026.27
2019-02-26T06:56:12.801Z,1026.25
2019-02-26T06:57:12.754Z,1026.30
2019-02-26T06:58:12.751Z,1026.25
2019-02-26T06:59:12.729Z,1026.28
2019-02-26T07:00:12.722Z,1026.27
2019-02-26T07:01:14.330Z,1026.26
2019-02-26T07:02:12.726Z,1026.27
2019-02-26T07:03:12.688Z,1026.33
2019-02-26T07:04:13.062Z,1026.36
2019-02-26T07:05:12.703Z,1026.31
2019-02-26T07:06:12.706Z,1026.32
2019-02-26T07:07:14.454Z,1026.36
2019-02-26T07:08:12.635Z,1026.33
2019-02-26T07:09:15.254Z,1026.29
2019-02-26T07:10:15.953Z,1026.35
2019-02-26T07:11:13.647Z,1026.35
2019-02-26T07:12:14.427Z,1026.33
2019-02-26T07:13:14.142Z,1026.37
2019-02-26T07:14:12.582Z,1026.37
2019-02-26T07:15:12.567Z,1026.37
2019-02-26T07:16:12.555Z,1026.36
2019-02-26T07:17:12.578Z,1026.40
2019-02-26T07:18:16.860Z,1026.38
2019-02-26T07:19:14.189Z,1026.32
2019-02-26T07:20:12.515Z,1026.29
2019-02-26T07:21:12.495Z,1026.30
2019-02-26T07:22:13.510Z,1026.31
2019-02-26T07:23:12.916Z,1026.31
2019-02-26T07:24:12.521Z,1026.33
2019-02-26T07:25:15.267Z,1026.30
2019-02-26T07:26:13.693Z,1026.27
2019-02-26T07:27:13.905Z,1026.27
2019-02-26T07:28:12.434Z,1026.28
2019-02-26T07:29:16.663Z,1026.32
2019-02-26T07:30:12.427Z,1026.30
2019-02-26T07:31:12.398Z,1026.29
2019-02-26T07:32:14.605Z,1026.31
2019-02-26T07:33:14.994Z,1026.30
2019-02-26T07:34:12.365Z,1026.30
2019-02-26T07:35:16.029Z,1026.30
2019-02-26T07:36:12.342Z,1026.31
2019-02-26T07:37:13.549Z,1026.32
2019-02-26T07:38:12.352Z,1026.34
2019-02-26T07:39:12.943Z,1026.39
2019-02-26T07:40:13.920Z,1026.38
2019-02-26T07:41:12.332Z,1026.38
2019-02-26T07:42:14.190Z,1026.39
2019-02-26T07:43:14.913Z,1026.40
2019-02-26T07:44:15.577Z,1026.43
2019-02-26T07:45:15.362Z,1026.55
2019-02-26T07:46:14.480Z,1026.47
2019-02-26T07:47:12.228Z,1026.45
2019-02-26T07:48:16.228Z,1026.46
2019-02-26T07:49:12.205Z,1026.54
2019-02-26T07:50:14.348Z,1026.57
2019-02-26T07:51:12.180Z,1026.56
2019-02-26T07:52:12.184Z,1026.61
2019-02-26T07:53:14.357Z,1026.62
2019-02-26T07:54:12.179Z,1026.63
2019-02-26T07:55:14.741Z,1026.69
2019-02-26T07:56:12.131Z,1026.65
2019-02-26T07:57:12.119Z,1026.70
2019-02-26T07:58:13.775Z,1026.69
2019-02-26T07:59:12.584Z,1026.65
2019-02-26T08:00:12.098Z,1026.64
2019-02-26T08:01:12.077Z,1026.70
2019-02-26T08:02:13.604Z,1026.69
2019-02-26T08:03:12.095Z,1026.65
2019-02-26T08:04:13.592Z,1026.65
2019-02-26T08:05:12.056Z,1026.67
2019-02-26T08:06:13.937Z,1026.69
2019-02-26T08:07:12.049Z,1026.70
2019-02-26T08:08:13.851Z,1026.66
2019-02-26T08:09:14.016Z,1026.67
2019-02-26T08:10:14.038Z,1026.67
2019-02-26T08:11:11.965Z,1026.61
2019-02-26T08:12:13.729Z,1026.62
2019-02-26T08:13:11.951Z,1026.65
2019-02-26T08:14:13.748Z,1026.63
2019-02-26T08:15:12.819Z,1026.61
2019-02-26T08:16:11.923Z,1026.65
2019-02-26T08:17:11.902Z,1026.66
2019-02-26T08:18:11.914Z,1026.68
2019-02-26T08:19:11.936Z,1026.67
2019-02-26T08:20:12.860Z,1026.65
2019-02-26T08:21:11.866Z,1026.65
2019-02-26T08:22:11.855Z,1026.59
2019-02-26T08:23:11.841Z,1026.57
2019-02-26T08:24:13.035Z,1026.57
2019-02-26T08:25:11.840Z,1026.55
2019-02-26T08:26:11.808Z,1026.56
2019-02-26T08:27:13.585Z,1026.55
2019-02-26T08:28:13.519Z,1026.51
2019-02-26T08:29:12.482Z,1026.51
2019-02-26T08:30:12.662Z,1026.53
2019-02-26T08:31:15.412Z,1026.46
2019-02-26T08:32:13.946Z,1026.53
2019-02-26T08:33:11.765Z,1026.54
2019-02-26T08:34:13.509Z,1026.52
2019-02-26T08:35:11.717Z,1026.45
2019-02-26T08:36:14.089Z,1026.44
2019-02-26T08:37:11.697Z,1026.54
2019-02-26T08:38:11.693Z,1026.54
2019-02-26T08:39:14.843Z,1026.57
2019-02-26T08:40:11.680Z,1026.55
2019-02-26T08:41:11.675Z,1026.61
2019-02-26T08:42:11.641Z,1026.61
2019-02-26T08:43:11.637Z,1026.56
2019-02-26T08:44:11.620Z,1026.58
2019-02-26T08:45:12.480Z,1026.51
2019-02-26T08:46:12.211Z,1026.53
2019-02-26T08:47:13.896Z,1026.54
2019-02-26T08:48:13.246Z,1026.54
2019-02-26T08:49:13.257Z,1026.56
2019-02-26T08:50:12.447Z,1026.58
2019-02-26T08:51:14.314Z,1026.56
2019-02-26T08:52:11.530Z,1026.57
2019-02-26T08:53:11.525Z,1026.47
2019-02-26T08:54:20.319Z,1026.58
2019-02-26T08:55:13.002Z,1026.58
2019-02-26T08:56:11.488Z,1026.58
2019-02-26T08:57:12.029Z,1026.58
2019-02-26T08:58:12.504Z,1026.52
2019-02-26T08:59:11.450Z,1026.55
2019-02-26T09:00:11.465Z,1026.53
2019-02-26T09:01:11.428Z,1026.51
2019-02-26T09:02:11.448Z,1026.62
2019-02-26T09:03:13.312Z,1026.55
2019-02-26T09:04:12.358Z,1026.52
2019-02-26T09:05:12.005Z,1026.56
2019-02-26T09:06:13.631Z,1026.54
2019-02-26T09:07:11.411Z,1026.58
2019-02-26T09:08:13.399Z,1026.55
2019-02-26T09:09:11.341Z,1026.54
2019-02-26T09:10:13.046Z,1026.60
2019-02-26T09:11:13.366Z,1026.56
2019-02-26T09:12:11.309Z,1026.62
2019-02-26T09:13:11.985Z,1026.55
2019-02-26T09:14:12.167Z,1026.67
2019-02-26T09:15:11.278Z,1026.62
2019-02-26T09:16:11.270Z,1026.60
2019-02-26T09:17:11.264Z,1026.64
2019-02-26T09:18:11.298Z,1026.58
2019-02-26T09:19:11.238Z,1026.63
2019-02-26T09:20:12.377Z,1026.61
2019-02-26T09:21:13.464Z,1026.60
2019-02-26T09:22:14.026Z,1026.59
2019-02-26T09:23:11.230Z,1026.61
2019-02-26T09:24:11.186Z,1026.60
2019-02-26T09:25:11.170Z,1026.58
2019-02-26T09:26:11.170Z,1026.62
2019-02-26T09:27:11.153Z,1026.62
2019-02-26T09:28:11.138Z,1026.62
2019-02-26T09:29:12.648Z,1026.58
2019-02-26T09:30:13.483Z,1026.60
2019-02-26T09:31:12.426Z,1026.62
2019-02-26T09:32:11.732Z,1026.65
2019-02-26T09:33:11.264Z,1026.62
2019-02-26T09:34:11.102Z,1026.61
2019-02-26T09:35:11.071Z,1026.59
2019-02-26T09:36:14.869Z,1026.66
2019-02-26T09:37:11.059Z,1026.69
2019-02-26T09:38:12.365Z,1026.62
2019-02-26T09:39:12.696Z,1026.65
2019-02-26T09:40:11.010Z,1026.64
2019-02-26T09:41:11.790Z,1026.63
2019-02-26T09:42:10.996Z,1026.65
2019-02-26T09:43:12.933Z,1026.64
2019-02-26T09:44:11.693Z,1026.66
2019-02-26T09:45:10.957Z,1026.62
2019-02-26T09:46:14.407Z,1026.70
2019-02-26T09:47:11.963Z,1026.67
2019-02-26T09:48:12.282Z,1026.61
2019-02-26T09:49:12.476Z,1026.66
2019-02-26T09:50:12.926Z,1026.75
2019-02-26T09:51:12.273Z,1026.63
2019-02-26T09:52:10.881Z,1026.70
2019-02-26T09:53:10.872Z,1026.62
2019-02-26T09:54:13.190Z,1026.70
2019-02-26T09:55:10.846Z,1026.66
